sensor_id;sensor_type;location;lat;lon;timestamp;temperature;humidity
1179;DHT22;578;48.408;10.004;2024-01-11T00:01:15;-6.80;99.90
1179;DHT22;578;48.408;10.004;2024-01-11T00:03:17;-6.80;99.90
1179;DHT22;578;48.408;10.004;2024-01-11T00:05:19;-6.90;99.90
1179;DHT22;578;48.408;10.004;2024-01-11T00:07:21;-6.90;99.90
1179;DHT22;578;48.408;10.004;2024-01-11T00:09:23;-7.00;99.90
1179;DHT22;578;48.408;10.004;2024-01-11T00:11:26;-7.00;99.90
1179;DHT22;578;48.408;10.004;2024-01-11T00:13:28;-7.00;99.90
1179;DHT22;578;48.408;10.004;2024-01-11T00:15:30;-7.00;99.90
1179;DHT22;578;48.408;10.004;2024-01-11T00:17:31;-7.00;99.90
1179;DHT22;578;48.408;10.004;2024-01-11T00:19:32;-7.00;99.90
1179;DHT22;578;48.408;10.004;2024-01-11T00:21:34;-7.00;99.90
1179;DHT22;578;48.408;10.004;2024-01-11T00:23:36;-7.00;99.90
1179;DHT22;578;48.408;10.004;2024-01-11T00:25:37;-6.90;99.90
1179;DHT22;578;48.408;10.004;2024-01-11T00:27:41;-6.90;99.90
1179;DHT22;578;48.408;10.004;2024-01-11T00:29:42;-6.80;99.90
1179;DHT22;578;48.408;10.004;2024-01-11T00:31:43;-6.60;99.90
1179;DHT22;578;48.408;10.004;2024-01-11T00:33:45;-6.50;99.90
1179;DHT22;578;48.408;10.004;2024-01-11T00:35:47;-6.50;99.90
1179;DHT22;578;48.408;10.004;2024-01-11T00:37:49;-6.40;99.90
1179;DHT22;578;48.408;10.004;2024-01-11T00:39:49;-6.30;99.90
1179;DHT22;578;48.408;10.004;2024-01-11T00:41:52;-6.10;99.90
1179;DHT22;578;48.408;10.004;2024-01-11T00:43:55;-5.90;99.90
1179;DHT22;578;48.408;10.004;2024-01-11T00:45:57;-5.70;99.90
1179;DHT22;578;48.408;10.004;2024-01-11T00:47:59;-5.70;99.90
1179;DHT22;578;48.408;10.004;2024-01-11T00:50:01;-5.80;99.90
1179;DHT22;578;48.408;10.004;2024-01-11T00:52:03;-5.90;99.90
1179;DHT22;578;48.408;10.004;2024-01-11T00:54:04;-5.70;99.90
1179;DHT22;578;48.408;10.004;2024-01-11T00:56:05;-5.70;99.90
1179;DHT22;578;48.408;10.004;2024-01-11T00:58:16;-5.80;99.90
1179;DHT22;578;48.408;10.004;2024-01-11T01:00:19;-5.80;99.90
1179;DHT22;578;48.408;10.004;2024-01-11T01:02:21;-5.70;99.90
1179;DHT22;578;48.408;10.004;2024-01-11T01:04:23;-5.60;99.90
1179;DHT22;578;48.408;10.004;2024-01-11T01:06:24;-5.50;99.90
1179;DHT22;578;48.408;10.004;2024-01-11T01:08:26;-5.40;99.90
1179;DHT22;578;48.408;10.004;2024-01-11T01:10:27;-5.40;99.90
1179;DHT22;578;48.408;10.004;2024-01-11T01:12:29;-5.30;99.90
1179;DHT22;578;48.408;10.004;2024-01-11T01:14:30;-5.30;99.90
1179;DHT22;578;48.408;10.004;2024-01-11T01:16:34;-5.20;99.90
1179;DHT22;578;48.408;10.004;2024-01-11T01:18:35;-5.20;99.90
1179;DHT22;578;48.408;10.004;2024-01-11T01:20:37;-5.10;99.90
1179;DHT22;578;48.408;10.004;2024-01-11T01:22:39;-5.10;99.90
1179;DHT22;578;48.408;10.004;2024-01-11T01:24:40;-5.20;99.90
1179;DHT22;578;48.408;10.004;2024-01-11T01:26:41;-5.10;99.90
1179;DHT22;578;48.408;10.004;2024-01-11T01:28:43;-5.10;99.90
1179;DHT22;578;48.408;10.004;2024-01-11T01:30:45;-5.10;99.90
1179;DHT22;578;48.408;10.004;2024-01-11T01:32:48;-5.10;99.90
1179;DHT22;578;48.408;10.004;2024-01-11T01:34:50;-5.10;99.90
1179;DHT22;578;48.408;10.004;2024-01-11T01:36:52;-5.10;99.90
1179;DHT22;578;48.408;10.004;2024-01-11T01:38:54;-5.10;99.90
1179;DHT22;578;48.408;10.004;2024-01-11T01:40:54;-5.20;99.90
1179;DHT22;578;48.408;10.004;2024-01-11T01:42:58;-5.20;99.90
1179;DHT22;578;48.408;10.004;2024-01-11T01:45:00;-5.20;99.90
1179;DHT22;578;48.408;10.004;2024-01-11T01:47:02;-5.20;99.90
1179;DHT22;578;48.408;10.004;2024-01-11T01:49:07;-5.20;99.90
1179;DHT22;578;48.408;10.004;2024-01-11T01:51:09;-5.10;99.90
1179;DHT22;578;48.408;10.004;2024-01-11T01:53:11;-5.10;99.90
1179;DHT22;578;48.408;10.004;2024-01-11T01:55:14;-5.10;99.90
1179;DHT22;578;48.408;10.004;2024-01-11T01:57:16;-5.10;99.90
1179;DHT22;578;48.408;10.004;2024-01-11T01:59:21;-5.20;99.90
1179;DHT22;578;48.408;10.004;2024-01-11T02:01:25;-5.30;99.90
1179;DHT22;578;48.408;10.004;2024-01-11T02:03:28;-5.20;99.90
1179;DHT22;578;48.408;10.004;2024-01-11T02:05:31;-5.30;99.90
1179;DHT22;578;48.408;10.004;2024-01-11T02:07:33;-5.30;99.90
1179;DHT22;578;48.408;10.004;2024-01-11T02:09:36;-5.30;99.90
1179;DHT22;578;48.408;10.004;2024-01-11T02:11:39;-5.30;99.90
1179;DHT22;578;48.408;10.004;2024-01-11T02:13:42;-5.30;99.90
1179;DHT22;578;48.408;10.004;2024-01-11T02:15:44;-5.30;99.90
1179;DHT22;578;48.408;10.004;2024-01-11T02:17:46;-5.40;99.90
1179;DHT22;578;48.408;10.004;2024-01-11T02:19:48;-5.40;99.90
1179;DHT22;578;48.408;10.004;2024-01-11T02:21:53;-5.40;99.90
1179;DHT22;578;48.408;10.004;2024-01-11T02:24:04;-5.50;99.90
1179;DHT22;578;48.408;10.004;2024-01-11T02:26:06;-5.50;99.90
1179;DHT22;578;48.408;10.004;2024-01-11T02:28:07;-5.50;99.90
1179;DHT22;578;48.408;10.004;2024-01-11T02:30:11;-5.60;99.90
1179;DHT22;578;48.408;10.004;2024-01-11T02:32:11;-5.40;99.90
1179;DHT22;578;48.408;10.004;2024-01-11T02:34:13;-5.50;99.90
1179;DHT22;578;48.408;10.004;2024-01-11T02:36:15;-5.40;99.90
1179;DHT22;578;48.408;10.004;2024-01-11T02:38:18;-5.40;99.90
1179;DHT22;578;48.408;10.004;2024-01-11T02:40:21;-5.50;99.90
1179;DHT22;578;48.408;10.004;2024-01-11T02:42:24;-5.50;99.90
1179;DHT22;578;48.408;10.004;2024-01-11T02:44:26;-5.60;99.90
1179;DHT22;578;48.408;10.004;2024-01-11T02:46:27;-5.60;99.90
1179;DHT22;578;48.408;10.004;2024-01-11T02:48:29;-5.50;99.90
1179;DHT22;578;48.408;10.004;2024-01-11T02:50:32;-5.40;99.90
1179;DHT22;578;48.408;10.004;2024-01-11T02:52:34;-5.60;99.90
1179;DHT22;578;48.408;10.004;2024-01-11T02:54:35;-5.60;99.90
1179;DHT22;578;48.408;10.004;2024-01-11T02:56:38;-5.50;99.90
1179;DHT22;578;48.408;10.004;2024-01-11T02:58:38;-5.60;99.90
1179;DHT22;578;48.408;10.004;2024-01-11T03:00:41;-5.60;99.90
1179;DHT22;578;48.408;10.004;2024-01-11T03:02:42;-5.70;99.90
1179;DHT22;578;48.408;10.004;2024-01-11T03:04:43;-5.60;99.90
1179;DHT22;578;48.408;10.004;2024-01-11T03:06:45;-5.60;99.90
1179;DHT22;578;48.408;10.004;2024-01-11T03:08:47;-5.60;99.90
1179;DHT22;578;48.408;10.004;2024-01-11T03:10:48;-5.60;99.90
1179;DHT22;578;48.408;10.004;2024-01-11T03:12:52;-5.50;99.90
1179;DHT22;578;48.408;10.004;2024-01-11T03:14:52;-5.60;99.90
1179;DHT22;578;48.408;10.004;2024-01-11T03:16:54;-5.50;99.90
1179;DHT22;578;48.408;10.004;2024-01-11T03:18:56;-5.50;99.90
1179;DHT22;578;48.408;10.004;2024-01-11T03:20:57;-5.50;99.90
1179;DHT22;578;48.408;10.004;2024-01-11T03:22:59;-5.50;99.90
1179;DHT22;578;48.408;10.004;2024-01-11T03:25:00;-5.40;99.90
1179;DHT22;578;48.408;10.004;2024-01-11T03:27:01;-5.30;99.90
1179;DHT22;578;48.408;10.004;2024-01-11T03:29:05;-5.40;99.90
1179;DHT22;578;48.408;10.004;2024-01-11T03:31:07;-5.40;99.90
1179;DHT22;578;48.408;10.004;2024-01-11T03:33:09;-5.40;99.90
1179;DHT22;578;48.408;10.004;2024-01-11T03:35:11;-5.50;99.90
1179;DHT22;578;48.408;10.004;2024-01-11T03:37:13;-5.40;99.90
1179;DHT22;578;48.408;10.004;2024-01-11T03:39:14;-5.50;99.90
1179;DHT22;578;48.408;10.004;2024-01-11T03:41:16;-5.40;99.90
1179;DHT22;578;48.408;10.004;2024-01-11T03:43:18;-5.50;99.90
1179;DHT22;578;48.408;10.004;2024-01-11T03:45:21;-5.50;99.90
1179;DHT22;578;48.408;10.004;2024-01-11T03:47:23;-5.40;99.90
1179;DHT22;578;48.408;10.004;2024-01-11T03:49:25;-5.40;99.90
1179;DHT22;578;48.408;10.004;2024-01-11T03:51:26;-5.50;99.90
1179;DHT22;578;48.408;10.004;2024-01-11T03:53:28;-5.50;99.90
1179;DHT22;578;48.408;10.004;2024-01-11T03:55:30;-5.40;99.90
1179;DHT22;578;48.408;10.004;2024-01-11T03:57:32;-5.40;99.90
1179;DHT22;578;48.408;10.004;2024-01-11T03:59:33;-5.40;99.90
1179;DHT22;578;48.408;10.004;2024-01-11T04:01:40;-5.30;99.90
1179;DHT22;578;48.408;10.004;2024-01-11T04:03:42;-5.50;99.90
1179;DHT22;578;48.408;10.004;2024-01-11T04:05:44;-5.50;99.90
1179;DHT22;578;48.408;10.004;2024-01-11T04:07:45;-5.40;99.90
1179;DHT22;578;48.408;10.004;2024-01-11T04:09:46;-5.40;99.90
1179;DHT22;578;48.408;10.004;2024-01-11T04:11:48;-5.40;99.90
1179;DHT22;578;48.408;10.004;2024-01-11T04:13:49;-5.50;99.90
1179;DHT22;578;48.408;10.004;2024-01-11T04:15:51;-5.50;99.90
1179;DHT22;578;48.408;10.004;2024-01-11T04:17:54;-5.50;99.90
1179;DHT22;578;48.408;10.004;2024-01-11T04:19:55;-5.40;99.90
1179;DHT22;578;48.408;10.004;2024-01-11T04:21:56;-5.40;99.90
1179;DHT22;578;48.408;10.004;2024-01-11T04:23:59;-5.50;99.90
1179;DHT22;578;48.408;10.004;2024-01-11T04:26:00;-5.50;99.90
1179;DHT22;578;48.408;10.004;2024-01-11T04:28:02;-5.50;99.90
1179;DHT22;578;48.408;10.004;2024-01-11T04:30:05;-5.40;99.90
1179;DHT22;578;48.408;10.004;2024-01-11T04:32:07;-5.40;99.90
1179;DHT22;578;48.408;10.004;2024-01-11T04:34:10;-5.50;99.90
1179;DHT22;578;48.408;10.004;2024-01-11T04:36:12;-5.50;99.90
1179;DHT22;578;48.408;10.004;2024-01-11T04:38:14;-5.50;99.90
1179;DHT22;578;48.408;10.004;2024-01-11T04:40:16;-5.30;99.90
1179;DHT22;578;48.408;10.004;2024-01-11T04:42:18;-5.40;99.90
1179;DHT22;578;48.408;10.004;2024-01-11T04:44:19;-5.40;99.90
1179;DHT22;578;48.408;10.004;2024-01-11T04:46:22;-5.40;99.90
1179;DHT22;578;48.408;10.004;2024-01-11T04:48:24;-5.50;99.90
1179;DHT22;578;48.408;10.004;2024-01-11T04:50:26;-5.50;99.90
1179;DHT22;578;48.408;10.004;2024-01-11T04:52:28;-5.40;99.90
1179;DHT22;578;48.408;10.004;2024-01-11T04:54:30;-5.50;99.90
1179;DHT22;578;48.408;10.004;2024-01-11T04:56:32;-5.40;99.90
1179;DHT22;578;48.408;10.004;2024-01-11T04:58:33;-5.40;99.90
1179;DHT22;578;48.408;10.004;2024-01-11T05:00:34;-5.40;99.90
1179;DHT22;578;48.408;10.004;2024-01-11T05:02:36;-5.30;99.90
1179;DHT22;578;48.408;10.004;2024-01-11T05:04:38;-5.30;99.90
1179;DHT22;578;48.408;10.004;2024-01-11T05:06:41;-5.30;99.90
1179;DHT22;578;48.408;10.004;2024-01-11T05:08:43;-5.40;99.90
1179;DHT22;578;48.408;10.004;2024-01-11T05:10:46;-5.30;99.90
1179;DHT22;578;48.408;10.004;2024-01-11T05:12:47;-5.20;99.90
1179;DHT22;578;48.408;10.004;2024-01-11T05:14:49;-5.30;99.90
1179;DHT22;578;48.408;10.004;2024-01-11T05:16:51;-5.20;99.90
1179;DHT22;578;48.408;10.004;2024-01-11T05:18:54;-5.20;99.90
1179;DHT22;578;48.408;10.004;2024-01-11T05:20:55;-5.20;99.90
1179;DHT22;578;48.408;10.004;2024-01-11T05:22:59;-5.20;99.90
1179;DHT22;578;48.408;10.004;2024-01-11T05:25:01;-5.30;99.90
1179;DHT22;578;48.408;10.004;2024-01-11T05:27:03;-5.20;99.90
1179;DHT22;578;48.408;10.004;2024-01-11T05:29:05;-5.30;99.90
1179;DHT22;578;48.408;10.004;2024-01-11T05:31:09;-5.30;99.90
1179;DHT22;578;48.408;10.004;2024-01-11T05:33:11;-5.30;99.90
1179;DHT22;578;48.408;10.004;2024-01-11T05:35:13;-5.30;99.90
1179;DHT22;578;48.408;10.004;2024-01-11T05:37:14;-5.20;99.90
1179;DHT22;578;48.408;10.004;2024-01-11T05:39:18;-5.20;99.90
1179;DHT22;578;48.408;10.004;2024-01-11T05:41:19;-5.20;99.90
1179;DHT22;578;48.408;10.004;2024-01-11T05:43:22;-5.20;99.90
1179;DHT22;578;48.408;10.004;2024-01-11T05:45:23;-5.30;99.90
1179;DHT22;578;48.408;10.004;2024-01-11T05:47:25;-5.30;99.90
1179;DHT22;578;48.408;10.004;2024-01-11T05:49:27;-5.30;99.90
1179;DHT22;578;48.408;10.004;2024-01-11T05:51:29;-5.20;99.90
1179;DHT22;578;48.408;10.004;2024-01-11T05:53:30;-5.30;99.90
1179;DHT22;578;48.408;10.004;2024-01-11T05:55:36;-5.30;99.90
1179;DHT22;578;48.408;10.004;2024-01-11T05:57:38;-5.40;99.90
1179;DHT22;578;48.408;10.004;2024-01-11T05:59:43;-5.30;99.90
1179;DHT22;578;48.408;10.004;2024-01-11T06:01:45;-5.30;99.90
1179;DHT22;578;48.408;10.004;2024-01-11T06:03:47;-5.40;99.90
1179;DHT22;578;48.408;10.004;2024-01-11T06:05:48;-5.40;99.90
1179;DHT22;578;48.408;10.004;2024-01-11T06:07:49;-5.30;99.90
1179;DHT22;578;48.408;10.004;2024-01-11T06:09:51;-5.40;99.90
1179;DHT22;578;48.408;10.004;2024-01-11T06:11:54;-5.50;99.90
1179;DHT22;578;48.408;10.004;2024-01-11T06:13:55;-5.40;99.90
1179;DHT22;578;48.408;10.004;2024-01-11T06:15:57;-5.40;99.90
1179;DHT22;578;48.408;10.004;2024-01-11T06:17:58;-5.30;99.90
1179;DHT22;578;48.408;10.004;2024-01-11T06:20:01;-5.30;99.90
1179;DHT22;578;48.408;10.004;2024-01-11T06:22:04;-5.40;99.90
1179;DHT22;578;48.408;10.004;2024-01-11T06:24:06;-5.30;99.90
1179;DHT22;578;48.408;10.004;2024-01-11T06:26:07;-5.30;99.90
1179;DHT22;578;48.408;10.004;2024-01-11T06:28:10;-5.30;99.90
1179;DHT22;578;48.408;10.004;2024-01-11T06:30:13;-5.30;99.90
1179;DHT22;578;48.408;10.004;2024-01-11T06:32:15;-5.30;99.90
1179;DHT22;578;48.408;10.004;2024-01-11T06:34:16;-5.20;99.90
1179;DHT22;578;48.408;10.004;2024-01-11T06:36:18;-5.20;99.90
1179;DHT22;578;48.408;10.004;2024-01-11T06:38:20;-5.20;99.90
1179;DHT22;578;48.408;10.004;2024-01-11T06:40:22;-5.20;99.90
1179;DHT22;578;48.408;10.004;2024-01-11T06:42:24;-5.30;99.90
1179;DHT22;578;48.408;10.004;2024-01-11T06:44:26;-5.30;99.90
1179;DHT22;578;48.408;10.004;2024-01-11T06:46:28;-5.30;99.90
1179;DHT22;578;48.408;10.004;2024-01-11T06:48:31;-5.20;99.90
1179;DHT22;578;48.408;10.004;2024-01-11T06:50:32;-5.20;99.90
1179;DHT22;578;48.408;10.004;2024-01-11T06:52:34;-5.20;99.90
1179;DHT22;578;48.408;10.004;2024-01-11T06:54:36;-5.30;99.90
1179;DHT22;578;48.408;10.004;2024-01-11T06:56:37;-5.30;99.90
1179;DHT22;578;48.408;10.004;2024-01-11T06:58:39;-5.30;99.90
1179;DHT22;578;48.408;10.004;2024-01-11T07:00:41;-5.30;99.90
1179;DHT22;578;48.408;10.004;2024-01-11T07:02:43;-5.30;99.90
1179;DHT22;578;48.408;10.004;2024-01-11T07:04:45;-5.40;99.90
1179;DHT22;578;48.408;10.004;2024-01-11T07:06:47;-5.40;99.90
1179;DHT22;578;48.408;10.004;2024-01-11T07:08:49;-5.40;99.90
1179;DHT22;578;48.408;10.004;2024-01-11T07:10:51;-5.30;99.90
1179;DHT22;578;48.408;10.004;2024-01-11T07:12:51;-5.30;99.90
1179;DHT22;578;48.408;10.004;2024-01-11T07:14:53;-5.30;99.90
1179;DHT22;578;48.408;10.004;2024-01-11T07:16:56;-5.30;99.90
1179;DHT22;578;48.408;10.004;2024-01-11T07:18:58;-5.20;99.90
1179;DHT22;578;48.408;10.004;2024-01-11T07:21:00;-5.20;99.90
1179;DHT22;578;48.408;10.004;2024-01-11T07:23:02;-5.30;99.90
1179;DHT22;578;48.408;10.004;2024-01-11T07:25:04;-5.20;99.90
1179;DHT22;578;48.408;10.004;2024-01-11T07:27:06;-5.30;99.90
1179;DHT22;578;48.408;10.004;2024-01-11T07:29:08;-5.30;99.90
1179;DHT22;578;48.408;10.004;2024-01-11T07:31:10;-5.30;99.90
1179;DHT22;578;48.408;10.004;2024-01-11T07:33:12;-5.20;99.90
1179;DHT22;578;48.408;10.004;2024-01-11T07:35:14;-5.30;99.90
1179;DHT22;578;48.408;10.004;2024-01-11T07:37:16;-5.30;99.90
1179;DHT22;578;48.408;10.004;2024-01-11T07:39:18;-5.30;99.90
1179;DHT22;578;48.408;10.004;2024-01-11T07:41:21;-5.30;99.90
1179;DHT22;578;48.408;10.004;2024-01-11T07:43:22;-5.30;99.90
1179;DHT22;578;48.408;10.004;2024-01-11T07:45:24;-5.20;99.90
1179;DHT22;578;48.408;10.004;2024-01-11T07:47:25;-5.20;99.90
1179;DHT22;578;48.408;10.004;2024-01-11T07:49:28;-5.20;99.90
1179;DHT22;578;48.408;10.004;2024-01-11T07:51:31;-5.30;99.90
1179;DHT22;578;48.408;10.004;2024-01-11T07:53:32;-5.30;99.90
1179;DHT22;578;48.408;10.004;2024-01-11T07:55:35;-5.20;99.90
1179;DHT22;578;48.408;10.004;2024-01-11T07:57:36;-5.20;99.90
1179;DHT22;578;48.408;10.004;2024-01-11T07:59:38;-5.10;99.90
1179;DHT22;578;48.408;10.004;2024-01-11T08:01:39;-5.10;99.90
1179;DHT22;578;48.408;10.004;2024-01-11T08:03:41;-5.10;99.90
1179;DHT22;578;48.408;10.004;2024-01-11T08:05:46;-5.10;99.90
1179;DHT22;578;48.408;10.004;2024-01-11T08:07:50;-5.10;99.90
1179;DHT22;578;48.408;10.004;2024-01-11T08:09:52;-5.10;99.90
1179;DHT22;578;48.408;10.004;2024-01-11T08:11:54;-5.10;99.90
1179;DHT22;578;48.408;10.004;2024-01-11T08:13:55;-5.10;99.90
1179;DHT22;578;48.408;10.004;2024-01-11T08:15:57;-5.30;99.90
1179;DHT22;578;48.408;10.004;2024-01-11T08:17:59;-5.20;99.90
1179;DHT22;578;48.408;10.004;2024-01-11T08:20:01;-5.10;99.90
1179;DHT22;578;48.408;10.004;2024-01-11T08:22:04;-5.10;99.90
1179;DHT22;578;48.408;10.004;2024-01-11T08:24:06;-5.10;99.90
1179;DHT22;578;48.408;10.004;2024-01-11T08:26:08;-5.00;99.90
1179;DHT22;578;48.408;10.004;2024-01-11T08:28:10;-5.00;99.90
1179;DHT22;578;48.408;10.004;2024-01-11T08:30:12;-4.90;99.90
1179;DHT22;578;48.408;10.004;2024-01-11T08:32:14;-4.90;99.90
1179;DHT22;578;48.408;10.004;2024-01-11T08:34:17;-5.00;99.90
1179;DHT22;578;48.408;10.004;2024-01-11T08:36:19;-4.90;99.90
1179;DHT22;578;48.408;10.004;2024-01-11T08:38:22;-4.90;99.90
1179;DHT22;578;48.408;10.004;2024-01-11T08:40:24;-4.80;99.90
1179;DHT22;578;48.408;10.004;2024-01-11T08:42:27;-4.90;99.90
1179;DHT22;578;48.408;10.004;2024-01-11T08:44:27;-5.00;99.90
1179;DHT22;578;48.408;10.004;2024-01-11T08:46:29;-5.00;99.90
1179;DHT22;578;48.408;10.004;2024-01-11T08:48:33;-4.80;99.90
1179;DHT22;578;48.408;10.004;2024-01-11T08:50:35;-4.70;99.90
1179;DHT22;578;48.408;10.004;2024-01-11T08:52:37;-4.70;99.90
1179;DHT22;578;48.408;10.004;2024-01-11T08:54:41;-4.60;99.90
1179;DHT22;578;48.408;10.004;2024-01-11T08:56:42;-4.70;99.90
1179;DHT22;578;48.408;10.004;2024-01-11T08:58:44;-4.80;99.90
1179;DHT22;578;48.408;10.004;2024-01-11T09:00:47;-4.80;99.90
1179;DHT22;578;48.408;10.004;2024-01-11T09:02:49;-4.80;99.90
1179;DHT22;578;48.408;10.004;2024-01-11T09:04:50;-4.70;99.90
1179;DHT22;578;48.408;10.004;2024-01-11T09:06:52;-4.70;99.90
1179;DHT22;578;48.408;10.004;2024-01-11T09:08:54;-4.80;99.90
1179;DHT22;578;48.408;10.004;2024-01-11T09:10:57;-5.10;99.90
1179;DHT22;578;48.408;10.004;2024-01-11T09:12:58;-5.00;99.90
1179;DHT22;578;48.408;10.004;2024-01-11T09:15:00;-5.10;99.90
1179;DHT22;578;48.408;10.004;2024-01-11T09:17:01;-5.10;99.90
1179;DHT22;578;48.408;10.004;2024-01-11T09:19:03;-5.00;99.90
1179;DHT22;578;48.408;10.004;2024-01-11T09:21:04;-4.90;99.90
1179;DHT22;578;48.408;10.004;2024-01-11T09:23:05;-4.90;99.90
1179;DHT22;578;48.408;10.004;2024-01-11T09:25:07;-4.90;99.90
1179;DHT22;578;48.408;10.004;2024-01-11T09:27:10;-4.90;99.90
1179;DHT22;578;48.408;10.004;2024-01-11T09:29:12;-5.10;99.90
1179;DHT22;578;48.408;10.004;2024-01-11T09:31:13;-5.00;99.90
1179;DHT22;578;48.408;10.004;2024-01-11T09:33:15;-4.90;99.90
1179;DHT22;578;48.408;10.004;2024-01-11T09:35:17;-4.90;99.90
1179;DHT22;578;48.408;10.004;2024-01-11T09:37:19;-5.00;99.90
1179;DHT22;578;48.408;10.004;2024-01-11T09:39:19;-4.90;99.90
1179;DHT22;578;48.408;10.004;2024-01-11T09:41:21;-5.00;99.90
1179;DHT22;578;48.408;10.004;2024-01-11T09:43:25;-4.80;99.90
1179;DHT22;578;48.408;10.004;2024-01-11T09:45:28;-4.60;99.90
1179;DHT22;578;48.408;10.004;2024-01-11T09:47:29;-4.60;99.90
1179;DHT22;578;48.408;10.004;2024-01-11T09:49:33;-4.60;99.90
1179;DHT22;578;48.408;10.004;2024-01-11T09:51:37;-4.60;99.90
1179;DHT22;578;48.408;10.004;2024-01-11T09:53:40;-4.50;99.90
1179;DHT22;578;48.408;10.004;2024-01-11T09:55:43;-4.50;99.90
1179;DHT22;578;48.408;10.004;2024-01-11T09:57:46;-4.40;99.90
1179;DHT22;578;48.408;10.004;2024-01-11T09:59:51;-4.30;99.90
1179;DHT22;578;48.408;10.004;2024-01-11T10:01:56;-4.20;99.90
1179;DHT22;578;48.408;10.004;2024-01-11T10:03:59;-4.40;99.90
1179;DHT22;578;48.408;10.004;2024-01-11T10:06:02;-4.40;99.90
1179;DHT22;578;48.408;10.004;2024-01-11T10:08:05;-4.40;99.90
1179;DHT22;578;48.408;10.004;2024-01-11T10:10:07;-4.50;99.90
1179;DHT22;578;48.408;10.004;2024-01-11T10:12:09;-4.20;99.90
1179;DHT22;578;48.408;10.004;2024-01-11T10:14:12;-4.00;99.90
1179;DHT22;578;48.408;10.004;2024-01-11T10:16:15;-4.10;99.90
1179;DHT22;578;48.408;10.004;2024-01-11T10:18:17;-4.00;99.90
1179;DHT22;578;48.408;10.004;2024-01-11T10:20:21;-3.90;99.90
1179;DHT22;578;48.408;10.004;2024-01-11T10:22:24;-3.80;99.90
1179;DHT22;578;48.408;10.004;2024-01-11T10:24:26;-3.60;99.90
1179;DHT22;578;48.408;10.004;2024-01-11T10:26:30;-3.70;99.90
1179;DHT22;578;48.408;10.004;2024-01-11T10:28:33;-3.70;99.90
1179;DHT22;578;48.408;10.004;2024-01-11T10:30:38;-3.70;99.90
1179;DHT22;578;48.408;10.004;2024-01-11T10:32:43;-3.70;99.90
1179;DHT22;578;48.408;10.004;2024-01-11T10:34:45;-3.80;99.90
1179;DHT22;578;48.408;10.004;2024-01-11T10:36:48;-4.20;99.90
1179;DHT22;578;48.408;10.004;2024-01-11T10:38:53;-4.10;99.90
1179;DHT22;578;48.408;10.004;2024-01-11T10:41:00;-3.90;99.90
1179;DHT22;578;48.408;10.004;2024-01-11T10:43:03;-3.60;99.90
1179;DHT22;578;48.408;10.004;2024-01-11T10:45:14;-3.60;99.90
1179;DHT22;578;48.408;10.004;2024-01-11T10:47:18;-3.70;99.90
1179;DHT22;578;48.408;10.004;2024-01-11T10:49:23;-3.60;99.90
1179;DHT22;578;48.408;10.004;2024-01-11T10:51:28;-3.70;99.90
1179;DHT22;578;48.408;10.004;2024-01-11T10:53:40;-3.60;99.90
1179;DHT22;578;48.408;10.004;2024-01-11T10:55:44;-3.50;99.90
1179;DHT22;578;48.408;10.004;2024-01-11T10:57:48;-3.40;99.90
1179;DHT22;578;48.408;10.004;2024-01-11T10:59:50;-3.80;99.90
1179;DHT22;578;48.408;10.004;2024-01-11T11:01:53;-3.80;99.90
1179;DHT22;578;48.408;10.004;2024-01-11T11:03:57;-3.50;99.90
1179;DHT22;578;48.408;10.004;2024-01-11T11:06:01;-3.50;99.90
1179;DHT22;578;48.408;10.004;2024-01-11T11:08:04;-3.40;99.90
1179;DHT22;578;48.408;10.004;2024-01-11T11:10:09;-3.70;99.90
1179;DHT22;578;48.408;10.004;2024-01-11T11:12:11;-3.60;99.90
1179;DHT22;578;48.408;10.004;2024-01-11T11:14:14;-3.50;99.90
1179;DHT22;578;48.408;10.004;2024-01-11T11:16:18;-3.40;99.90
1179;DHT22;578;48.408;10.004;2024-01-11T11:18:20;-3.40;99.90
1179;DHT22;578;48.408;10.004;2024-01-11T11:20:23;-3.20;99.90
1179;DHT22;578;48.408;10.004;2024-01-11T11:22:28;-3.10;99.90
1179;DHT22;578;48.408;10.004;2024-01-11T11:24:34;-3.20;99.90
1179;DHT22;578;48.408;10.004;2024-01-11T11:26:36;-3.30;99.90
1179;DHT22;578;48.408;10.004;2024-01-11T11:28:38;-3.10;99.90
1179;DHT22;578;48.408;10.004;2024-01-11T11:30:41;-3.00;99.90
1179;DHT22;578;48.408;10.004;2024-01-11T11:32:44;-3.00;99.90
1179;DHT22;578;48.408;10.004;2024-01-11T11:34:46;-2.90;99.90
1179;DHT22;578;48.408;10.004;2024-01-11T11:36:50;-3.00;99.90
1179;DHT22;578;48.408;10.004;2024-01-11T11:38:57;-3.00;99.90
1179;DHT22;578;48.408;10.004;2024-01-11T11:41:01;-3.00;99.90
1179;DHT22;578;48.408;10.004;2024-01-11T11:43:04;-3.00;99.90
1179;DHT22;578;48.408;10.004;2024-01-11T11:45:06;-2.80;99.90
1179;DHT22;578;48.408;10.004;2024-01-11T11:47:19;-2.80;99.90
1179;DHT22;578;48.408;10.004;2024-01-11T11:49:21;-2.70;99.90
1179;DHT22;578;48.408;10.004;2024-01-11T11:51:23;-2.70;99.90
1179;DHT22;578;48.408;10.004;2024-01-11T11:53:24;-2.80;99.90
1179;DHT22;578;48.408;10.004;2024-01-11T11:55:28;-3.10;99.90
1179;DHT22;578;48.408;10.004;2024-01-11T11:57:31;-3.10;99.90
1179;DHT22;578;48.408;10.004;2024-01-11T11:59:33;-3.20;99.90
1179;DHT22;578;48.408;10.004;2024-01-11T12:01:37;-3.10;99.90
1179;DHT22;578;48.408;10.004;2024-01-11T12:03:41;-3.40;99.90
1179;DHT22;578;48.408;10.004;2024-01-11T12:05:42;-3.40;99.90
1179;DHT22;578;48.408;10.004;2024-01-11T12:07:44;-3.40;99.90
1179;DHT22;578;48.408;10.004;2024-01-11T12:09:46;-3.30;99.90
1179;DHT22;578;48.408;10.004;2024-01-11T12:11:49;-3.20;99.90
1179;DHT22;578;48.408;10.004;2024-01-11T12:13:51;-3.10;99.90
1179;DHT22;578;48.408;10.004;2024-01-11T12:15:54;-3.00;99.90
1179;DHT22;578;48.408;10.004;2024-01-11T12:17:57;-3.00;99.90
1179;DHT22;578;48.408;10.004;2024-01-11T12:19:59;-3.00;99.90
1179;DHT22;578;48.408;10.004;2024-01-11T12:22:01;-3.00;99.90
1179;DHT22;578;48.408;10.004;2024-01-11T12:24:03;-2.90;99.90
1179;DHT22;578;48.408;10.004;2024-01-11T12:26:07;-2.80;99.90
1179;DHT22;578;48.408;10.004;2024-01-11T12:28:13;-2.80;99.90
1179;DHT22;578;48.408;10.004;2024-01-11T12:30:16;-2.70;99.90
1179;DHT22;578;48.408;10.004;2024-01-11T12:32:18;-2.70;99.90
1179;DHT22;578;48.408;10.004;2024-01-11T12:34:21;-2.70;99.90
1179;DHT22;578;48.408;10.004;2024-01-11T12:36:24;-2.80;99.90
1179;DHT22;578;48.408;10.004;2024-01-11T12:38:26;-2.80;99.90
1179;DHT22;578;48.408;10.004;2024-01-11T12:40:27;-2.70;99.90
1179;DHT22;578;48.408;10.004;2024-01-11T12:42:31;-2.60;99.90
1179;DHT22;578;48.408;10.004;2024-01-11T12:44:34;-2.50;99.90
1179;DHT22;578;48.408;10.004;2024-01-11T12:46:38;-2.50;99.90
1179;DHT22;578;48.408;10.004;2024-01-11T12:48:39;-2.40;99.90
1179;DHT22;578;48.408;10.004;2024-01-11T12:50:41;-2.30;99.90
1179;DHT22;578;48.408;10.004;2024-01-11T12:52:43;-2.20;99.90
1179;DHT22;578;48.408;10.004;2024-01-11T12:54:45;-2.20;99.90
1179;DHT22;578;48.408;10.004;2024-01-11T12:56:46;-2.20;99.90
1179;DHT22;578;48.408;10.004;2024-01-11T12:58:52;-2.20;99.90
1179;DHT22;578;48.408;10.004;2024-01-11T13:01:08;-2.20;99.90
1179;DHT22;578;48.408;10.004;2024-01-11T13:03:11;-2.20;99.90
1179;DHT22;578;48.408;10.004;2024-01-11T13:05:14;-2.20;99.90
1179;DHT22;578;48.408;10.004;2024-01-11T13:07:17;-2.30;99.90
1179;DHT22;578;48.408;10.004;2024-01-11T13:09:19;-2.20;99.90
1179;DHT22;578;48.408;10.004;2024-01-11T13:11:23;-2.20;99.90
1179;DHT22;578;48.408;10.004;2024-01-11T13:13:25;-2.20;99.90
1179;DHT22;578;48.408;10.004;2024-01-11T13:15:29;-2.10;99.90
1179;DHT22;578;48.408;10.004;2024-01-11T13:17:33;-2.10;99.90
1179;DHT22;578;48.408;10.004;2024-01-11T13:19:35;-2.10;99.90